createdAt,value
2017-09-19T00:01:46.679Z,7.80
2017-09-19T00:04:14.950Z,7.70
2017-09-19T00:06:43.259Z,7.70
2017-09-19T00:09:11.685Z,7.70
2017-09-19T00:11:40.043Z,7.60
2017-09-19T00:14:09.314Z,7.60
2017-09-19T00:16:37.676Z,7.60
2017-09-19T00:19:06.427Z,7.60
2017-09-19T00:21:34.743Z,7.60
2017-09-19T00:24:03.101Z,7.70
2017-09-19T00:26:31.382Z,7.60
2017-09-19T00:29:00.451Z,7.70
2017-09-19T00:31:28.763Z,7.70
2017-09-19T00:33:57.075Z,7.70
2017-09-19T00:36:25.503Z,7.60
2017-09-19T00:38:54.093Z,7.60
2017-09-19T00:41:22.439Z,7.60
2017-09-19T00:43:50.714Z,7.60
2017-09-19T00:46:19.083Z,7.60
2017-09-19T00:48:47.390Z,7.60
2017-09-19T00:51:15.795Z,7.50
2017-09-19T00:53:44.099Z,7.50
2017-09-19T00:56:12.411Z,7.50
2017-09-19T00:58:40.672Z,7.50
2017-09-19T01:01:09.031Z,7.50
2017-09-19T01:03:37.380Z,7.40
2017-09-19T01:06:05.750Z,7.40
2017-09-19T01:08:34.859Z,7.40
2017-09-19T01:11:03.979Z,7.30
2017-09-19T01:13:33.060Z,7.30
2017-09-19T01:16:01.335Z,7.30
2017-09-19T01:18:29.668Z,7.30
2017-09-19T01:20:57.943Z,7.20
2017-09-19T01:23:26.255Z,7.20
2017-09-19T01:25:54.594Z,7.30
2017-09-19T01:28:23.690Z,7.30
2017-09-19T01:30:51.998Z,7.30
2017-09-19T01:33:20.339Z,7.30
2017-09-19T01:35:49.389Z,7.40
2017-09-19T01:38:17.686Z,7.30
2017-09-19T01:40:45.967Z,7.30
2017-09-19T01:43:15.038Z,7.20
2017-09-19T01:45:43.339Z,7.10
2017-09-19T01:48:11.623Z,7.20
2017-09-19T01:50:39.935Z,7.20
2017-09-19T01:53:08.676Z,7.20
2017-09-19T01:55:37.205Z,7.20
2017-09-19T01:58:05.714Z,7.20
2017-09-19T02:00:34.002Z,7.10
2017-09-19T02:03:03.088Z,7.00
2017-09-19T02:05:32.183Z,7.00
2017-09-19T02:08:00.513Z,7.00
2017-09-19T02:10:28.791Z,7.00
2017-09-19T02:12:57.103Z,7.00
2017-09-19T02:15:25.558Z,7.10
2017-09-19T02:17:54.727Z,7.10
2017-09-19T02:20:23.047Z,7.10
2017-09-19T02:22:52.899Z,7.20
2017-09-19T02:25:21.175Z,7.20
2017-09-19T02:27:49.595Z,7.20
2017-09-19T02:30:17.906Z,7.10
2017-09-19T02:32:46.188Z,7.10
2017-09-19T02:35:14.700Z,7.10
2017-09-19T02:37:42.979Z,7.10
2017-09-19T02:40:11.266Z,7.10
2017-09-19T02:42:39.691Z,7.10
2017-09-19T02:45:08.215Z,7.10
2017-09-19T02:47:36.720Z,7.10
2017-09-19T02:50:05.216Z,7.10
2017-09-19T02:52:33.558Z,7.10
2017-09-19T02:55:01.863Z,7.00
2017-09-19T02:57:30.943Z,6.90
2017-09-19T02:59:59.244Z,6.90
2017-09-19T03:02:27.555Z,7.00
2017-09-19T03:04:55.882Z,7.00
2017-09-19T03:07:24.182Z,7.00
2017-09-19T03:09:52.587Z,7.00
2017-09-19T03:12:20.871Z,7.00
2017-09-19T03:14:49.192Z,7.00
2017-09-19T03:17:17.480Z,7.00
2017-09-19T03:19:45.994Z,6.90
2017-09-19T03:22:14.279Z,6.90
2017-09-19T03:24:42.559Z,6.90
2017-09-19T03:27:10.879Z,6.80
2017-09-19T03:29:39.326Z,6.80
2017-09-19T03:32:08.010Z,7.00
2017-09-19T03:34:36.362Z,7.00
2017-09-19T03:37:06.324Z,6.90
2017-09-19T03:39:35.507Z,6.80
2017-09-19T03:42:03.937Z,6.80
2017-09-19T03:44:33.017Z,6.80
2017-09-19T03:47:02.119Z,6.90
2017-09-19T03:49:30.399Z,6.90
2017-09-19T03:51:58.718Z,6.90
2017-09-19T03:54:26.999Z,6.80
2017-09-19T03:56:55.350Z,6.90
2017-09-19T03:59:23.964Z,6.80
2017-09-19T04:01:52.244Z,6.80
2017-09-19T04:04:20.523Z,6.70
2017-09-19T04:06:48.839Z,6.70
2017-09-19T04:09:17.147Z,6.70
2017-09-19T04:11:45.463Z,6.70
2017-09-19T04:14:13.747Z,6.70
2017-09-19T04:16:42.063Z,6.50
2017-09-19T04:19:10.338Z,6.50
2017-09-19T04:21:38.659Z,6.50
2017-09-19T04:24:07.074Z,6.50
2017-09-19T04:26:35.358Z,6.40
2017-09-19T04:29:03.639Z,6.40
2017-09-19T04:31:31.951Z,6.40
2017-09-19T04:34:00.262Z,6.30
2017-09-19T04:36:28.542Z,6.20
2017-09-19T04:38:56.855Z,6.30
2017-09-19T04:41:25.143Z,6.30
2017-09-19T04:43:53.476Z,6.20
2017-09-19T04:46:21.755Z,6.20
2017-09-19T04:48:50.067Z,6.20
2017-09-19T04:51:18.478Z,6.20
2017-09-19T04:53:46.782Z,6.10
2017-09-19T04:56:15.107Z,6.20
2017-09-19T04:58:43.415Z,6.20
2017-09-19T05:01:11.723Z,6.20
2017-09-19T05:03:40.812Z,6.10
2017-09-19T05:06:09.095Z,6.10
2017-09-19T05:08:37.419Z,6.20
2017-09-19T05:11:05.723Z,6.10
2017-09-19T05:13:35.555Z,6.10
2017-09-19T05:16:04.053Z,6.10
2017-09-19T05:18:32.458Z,6.10
2017-09-19T05:21:00.739Z,6.10
2017-09-19T05:23:29.163Z,6.00
2017-09-19T05:25:57.466Z,6.10
2017-09-19T05:28:25.745Z,6.40
2017-09-19T05:30:54.055Z,6.40
2017-09-19T05:33:22.343Z,6.50
2017-09-19T05:35:50.655Z,6.60
2017-09-19T05:38:18.968Z,6.70
2017-09-19T05:40:47.282Z,6.80
2017-09-19T05:43:15.603Z,6.90
2017-09-19T05:45:43.922Z,7.10
2017-09-19T05:48:12.971Z,7.40
2017-09-19T05:50:41.416Z,7.30
2017-09-19T05:53:09.699Z,7.50
2017-09-19T05:55:38.018Z,7.60
2017-09-19T05:58:06.423Z,7.70
2017-09-19T06:00:34.723Z,7.90
2017-09-19T06:03:03.875Z,8.10
2017-09-19T06:05:32.955Z,8.20
2017-09-19T06:08:01.360Z,8.20
2017-09-19T06:10:29.675Z,8.40
2017-09-19T06:12:57.963Z,8.40
2017-09-19T06:15:26.382Z,8.50
2017-09-19T06:17:54.671Z,8.60
2017-09-19T06:20:22.992Z,8.80
2017-09-19T06:22:51.316Z,8.90
2017-09-19T06:25:20.371Z,9.00
2017-09-19T06:27:48.688Z,9.00
2017-09-19T06:30:17.007Z,9.20
2017-09-19T06:32:45.321Z,9.30
2017-09-19T06:35:13.639Z,9.30
2017-09-19T06:37:42.695Z,9.50
2017-09-19T06:40:11.015Z,9.50
2017-09-19T06:42:39.331Z,9.70
2017-09-19T06:45:07.629Z,9.80
2017-09-19T06:47:35.971Z,9.90
2017-09-19T06:50:05.071Z,10.30
2017-09-19T06:52:33.359Z,10.30
2017-09-19T06:55:01.683Z,10.40
2017-09-19T06:57:30.739Z,10.70
2017-09-19T06:59:59.068Z,10.70
2017-09-19T07:02:27.358Z,10.90
2017-09-19T07:04:55.768Z,11.00
2017-09-19T07:07:24.083Z,11.20
2017-09-19T07:09:52.426Z,11.30
2017-09-19T07:12:21.479Z,11.50
2017-09-19T07:14:49.810Z,11.50
2017-09-19T07:17:18.142Z,11.60
2017-09-19T07:19:47.204Z,11.90
2017-09-19T07:22:15.491Z,11.80
2017-09-19T07:24:43.810Z,12.00
2017-09-19T07:27:12.094Z,12.10
2017-09-19T07:29:40.423Z,12.10
2017-09-19T07:32:08.739Z,12.10
2017-09-19T07:34:37.071Z,12.20
2017-09-19T07:37:05.367Z,12.30
2017-09-19T07:39:33.654Z,12.40
2017-09-19T07:42:02.035Z,12.50
2017-09-19T07:44:30.314Z,12.70
2017-09-19T07:46:58.647Z,12.80
2017-09-19T07:49:26.931Z,12.90
2017-09-19T07:51:55.250Z,12.90
2017-09-19T07:54:23.575Z,13.00
2017-09-19T07:56:51.863Z,13.10
2017-09-19T07:59:20.183Z,13.30
2017-09-19T08:01:50.227Z,13.50
2017-09-19T08:04:18.494Z,13.50
2017-09-19T08:06:46.781Z,13.60
2017-09-19T08:09:15.102Z,13.80
2017-09-19T08:11:43.386Z,13.90
2017-09-19T08:14:11.715Z,14.00
2017-09-19T08:16:40.027Z,14.00
2017-09-19T08:19:09.846Z,14.30
2017-09-19T08:21:38.255Z,14.30
2017-09-19T08:24:06.563Z,14.20
2017-09-19T08:26:34.879Z,14.20
2017-09-19T08:29:03.939Z,14.60
2017-09-19T08:31:32.265Z,14.60
2017-09-19T08:34:00.534Z,14.70
2017-09-19T08:36:28.843Z,14.80
2017-09-19T08:38:57.123Z,15.00
2017-09-19T08:41:26.303Z,15.10
2017-09-19T08:43:54.579Z,15.10
2017-09-19T08:46:22.902Z,15.20
2017-09-19T08:48:51.210Z,15.20
2017-09-19T08:51:19.523Z,15.40
2017-09-19T08:53:47.911Z,15.50
2017-09-19T08:56:16.219Z,15.60
2017-09-19T08:58:44.603Z,15.70
2017-09-19T09:01:12.879Z,15.80
2017-09-19T09:03:41.191Z,15.90
2017-09-19T09:06:09.498Z,16.00
2017-09-19T09:08:37.822Z,16.10
2017-09-19T09:11:06.131Z,16.30
2017-09-19T09:13:34.443Z,16.30
2017-09-19T09:16:02.763Z,16.30
2017-09-19T09:18:31.043Z,16.40
2017-09-19T09:20:59.386Z,16.40
2017-09-19T09:23:28.430Z,16.40
2017-09-19T09:25:56.755Z,16.40
2017-09-19T09:28:25.066Z,16.50
2017-09-19T09:30:53.359Z,16.60
2017-09-19T09:33:21.862Z,16.60
2017-09-19T09:35:50.139Z,16.80
2017-09-19T09:38:18.414Z,16.80
2017-09-19T09:40:47.491Z,16.70
2017-09-19T09:43:15.787Z,16.70
2017-09-19T09:45:44.107Z,16.70
2017-09-19T09:48:12.387Z,16.80
2017-09-19T09:50:40.691Z,16.80
2017-09-19T09:53:09.003Z,17.00
2017-09-19T09:55:37.295Z,17.10
2017-09-19T09:58:05.623Z,16.90
2017-09-19T10:00:33.915Z,17.00
2017-09-19T10:03:02.220Z,17.20
2017-09-19T10:05:30.503Z,17.10
2017-09-19T10:07:58.823Z,17.10
2017-09-19T10:10:27.105Z,17.20
2017-09-19T10:12:55.406Z,17.10
2017-09-19T10:15:23.807Z,17.20
2017-09-19T10:17:52.091Z,17.00
2017-09-19T10:20:20.403Z,17.10
2017-09-19T10:22:48.718Z,17.20
2017-09-19T10:25:17.038Z,17.40
2017-09-19T10:27:46.850Z,17.70
2017-09-19T10:30:15.127Z,17.70
2017-09-19T10:32:43.435Z,17.70
2017-09-19T10:35:11.768Z,17.80
2017-09-19T10:37:40.163Z,18.00
2017-09-19T10:40:08.448Z,17.90
2017-09-19T10:42:36.758Z,17.60
2017-09-19T10:45:05.039Z,17.50
2017-09-19T10:47:33.314Z,17.50
2017-09-19T10:50:02.396Z,17.20
2017-09-19T10:52:30.671Z,17.20
2017-09-19T10:54:58.980Z,17.30
2017-09-19T10:57:27.267Z,17.30
2017-09-19T10:59:55.591Z,17.20
2017-09-19T11:02:23.872Z,17.00
2017-09-19T11:04:52.298Z,16.90
2017-09-19T11:07:20.575Z,16.80
2017-09-19T11:09:48.898Z,16.80
2017-09-19T11:12:17.214Z,16.90
2017-09-19T11:14:45.606Z,17.30
2017-09-19T11:17:13.918Z,17.60
2017-09-19T11:19:42.225Z,17.90
2017-09-19T11:22:10.505Z,18.30
2017-09-19T11:24:38.814Z,18.50
2017-09-19T11:27:11.354Z,18.70
2017-09-19T11:29:39.734Z,18.70
2017-09-19T11:32:08.003Z,18.90
2017-09-19T11:34:36.287Z,19.00
2017-09-19T11:37:05.374Z,19.30
2017-09-19T11:39:33.673Z,19.30
2017-09-19T11:42:01.975Z,19.50
2017-09-19T11:44:30.251Z,19.40
2017-09-19T11:46:58.563Z,19.50
2017-09-19T11:49:26.838Z,19.40
2017-09-19T11:51:55.170Z,19.60
2017-09-19T11:54:23.494Z,19.40
2017-09-19T11:56:51.775Z,19.40
2017-09-19T11:59:20.075Z,19.40
2017-09-19T12:01:48.383Z,19.60
2017-09-19T12:04:16.702Z,19.70
2017-09-19T12:06:44.979Z,19.70
2017-09-19T12:09:13.254Z,19.80
2017-09-19T12:11:41.583Z,19.90
2017-09-19T12:14:09.863Z,19.70
2017-09-19T12:16:38.151Z,19.70
2017-09-19T12:19:06.491Z,19.90
2017-09-19T12:21:35.204Z,19.90
2017-09-19T12:24:03.538Z,19.90
2017-09-19T12:26:32.582Z,19.90
2017-09-19T12:29:00.928Z,19.90
2017-09-19T12:31:29.206Z,19.80
2017-09-19T12:33:57.483Z,19.40
2017-09-19T12:36:25.794Z,19.40
2017-09-19T12:38:54.075Z,19.30
2017-09-19T12:41:23.118Z,19.00
2017-09-19T12:43:51.435Z,19.00
2017-09-19T12:46:19.778Z,18.70
2017-09-19T12:48:48.085Z,18.40
2017-09-19T12:51:16.454Z,18.30
2017-09-19T12:53:44.730Z,18.10
2017-09-19T12:56:13.162Z,17.70
2017-09-19T12:58:41.458Z,17.60
2017-09-19T13:01:09.729Z,17.70
2017-09-19T13:03:38.083Z,17.30
2017-09-19T13:06:06.363Z,17.50
2017-09-19T13:08:34.791Z,17.50
2017-09-19T13:11:03.137Z,17.50
2017-09-19T13:13:32.203Z,17.60
2017-09-19T13:16:00.483Z,17.60
2017-09-19T13:18:28.759Z,17.60
2017-09-19T13:20:57.067Z,17.60
2017-09-19T13:23:25.398Z,17.60
2017-09-19T13:25:53.803Z,17.70
2017-09-19T13:28:22.083Z,17.90
2017-09-19T13:31:02.334Z,18.00
2017-09-19T13:33:42.266Z,17.90
2017-09-19T13:36:10.579Z,17.90
2017-09-19T13:38:38.894Z,18.10
2017-09-19T13:41:07.183Z,18.20
2017-09-19T13:43:35.594Z,18.30
2017-09-19T13:46:05.394Z,18.30
2017-09-19T13:48:33.710Z,18.30
2017-09-19T13:51:02.219Z,18.20
2017-09-19T13:53:30.503Z,18.20
2017-09-19T13:55:58.778Z,18.20
2017-09-19T13:58:27.851Z,18.40
2017-09-19T14:00:56.126Z,18.40
2017-09-19T14:03:24.447Z,18.50
2017-09-19T14:05:52.751Z,18.40
2017-09-19T14:08:21.047Z,18.60
2017-09-19T14:10:49.359Z,18.40
2017-09-19T14:13:17.634Z,18.20
2017-09-19T14:15:45.938Z,18.00
2017-09-19T14:18:14.214Z,17.80
2017-09-19T14:20:42.524Z,17.70
2017-09-19T14:23:10.863Z,17.60
2017-09-19T14:25:39.142Z,17.50
2017-09-19T14:28:07.456Z,17.60
2017-09-19T14:30:35.783Z,17.50
2017-09-19T14:33:05.592Z,17.60
2017-09-19T14:35:33.927Z,17.60
2017-09-19T14:38:02.208Z,17.60
2017-09-19T14:40:30.487Z,17.50
2017-09-19T14:42:58.806Z,17.50
2017-09-19T14:45:27.106Z,17.50
2017-09-19T14:47:55.410Z,17.60
2017-09-19T14:50:23.685Z,17.50
2017-09-19T14:52:51.999Z,17.50
2017-09-19T14:55:20.420Z,17.60
2017-09-19T14:57:48.699Z,17.50
2017-09-19T15:00:17.022Z,17.60
2017-09-19T15:02:45.337Z,17.70
2017-09-19T15:05:13.703Z,17.70
2017-09-19T15:07:42.007Z,17.70
2017-09-19T15:10:10.286Z,17.80
2017-09-19T15:12:39.359Z,17.70
2017-09-19T15:15:07.646Z,17.70
2017-09-19T15:17:35.979Z,17.80
2017-09-19T15:20:04.297Z,17.70
2017-09-19T15:22:33.367Z,17.40
2017-09-19T15:25:01.647Z,17.40
2017-09-19T15:27:29.958Z,17.40
2017-09-19T15:29:58.282Z,17.50
2017-09-19T15:32:26.596Z,17.60
2017-09-19T15:34:54.875Z,17.60
2017-09-19T15:37:23.179Z,17.70
2017-09-19T15:39:51.564Z,17.70
2017-09-19T15:42:19.871Z,17.60
2017-09-19T15:44:48.190Z,17.50
2017-09-19T15:47:16.466Z,17.50
2017-09-19T15:49:44.907Z,17.50
2017-09-19T15:52:13.174Z,17.50
2017-09-19T15:54:41.470Z,17.50
2017-09-19T15:57:09.782Z,17.50
2017-09-19T15:59:38.054Z,17.40
2017-09-19T16:02:07.152Z,17.30
2017-09-19T16:04:35.559Z,17.30
2017-09-19T16:07:04.654Z,17.10
2017-09-19T16:09:32.962Z,17.10
2017-09-19T16:12:01.283Z,17.00
2017-09-19T16:14:29.602Z,16.90
2017-09-19T16:16:58.670Z,16.70
2017-09-19T16:19:26.991Z,16.60
2017-09-19T16:21:55.299Z,16.50
2017-09-19T16:24:25.117Z,16.30
2017-09-19T16:26:53.386Z,16.30
2017-09-19T16:29:21.709Z,16.20
2017-09-19T16:31:50.125Z,16.00
2017-09-19T16:34:18.399Z,15.90
2017-09-19T16:36:46.674Z,15.80
2017-09-19T16:39:15.843Z,15.60
2017-09-19T16:41:44.118Z,15.60
2017-09-19T16:44:12.395Z,15.50
2017-09-19T16:46:41.466Z,15.10
2017-09-19T16:49:09.747Z,15.10
2017-09-19T16:51:38.063Z,15.00
2017-09-19T16:54:06.396Z,15.00
2017-09-19T16:56:36.229Z,14.70
2017-09-19T16:59:04.609Z,14.70
2017-09-19T17:01:32.926Z,14.60
2017-09-19T17:04:01.240Z,14.50
2017-09-19T17:06:29.520Z,14.30
2017-09-19T17:08:57.919Z,14.20
2017-09-19T17:11:26.227Z,14.10
2017-09-19T17:13:54.578Z,14.00
2017-09-19T17:16:23.655Z,13.80
2017-09-19T17:18:51.955Z,13.80
2017-09-19T17:21:20.275Z,13.60
2017-09-19T17:23:50.286Z,13.50
2017-09-19T17:26:18.591Z,13.50
2017-09-19T17:28:46.871Z,13.40
2017-09-19T17:31:15.189Z,13.30
2017-09-19T17:33:43.462Z,13.30
2017-09-19T17:36:11.747Z,13.20
2017-09-19T17:38:40.831Z,13.00
2017-09-19T17:41:09.211Z,12.90
2017-09-19T17:43:37.495Z,12.90
2017-09-19T17:46:05.828Z,12.80
2017-09-19T17:48:34.162Z,12.70
2017-09-19T17:51:03.211Z,12.50
2017-09-19T17:53:31.651Z,12.50
2017-09-19T17:55:59.944Z,12.50
2017-09-19T17:58:28.219Z,12.60
2017-09-19T18:00:56.547Z,12.50
2017-09-19T18:03:24.863Z,12.40
2017-09-19T18:05:53.155Z,12.30
2017-09-19T18:08:21.471Z,12.30
2017-09-19T18:10:49.757Z,12.30
2017-09-19T18:13:18.272Z,12.20
2017-09-19T18:15:46.563Z,12.10
2017-09-19T18:18:14.850Z,12.10
2017-09-19T18:20:43.182Z,12.10
2017-09-19T18:23:12.398Z,12.10
2017-09-19T18:25:40.698Z,12.10
2017-09-19T18:28:09.091Z,12.10
2017-09-19T18:30:37.437Z,12.00
2017-09-19T18:33:05.786Z,12.00
2017-09-19T18:35:34.200Z,12.00
2017-09-19T18:38:02.518Z,12.00
2017-09-19T18:40:30.810Z,12.00
2017-09-19T18:42:59.328Z,12.00
2017-09-19T18:45:27.623Z,12.00
2017-09-19T18:47:56.023Z,12.00
2017-09-19T18:50:24.385Z,12.00
2017-09-19T18:52:53.455Z,12.00
2017-09-19T18:55:21.794Z,12.00
2017-09-19T18:57:50.843Z,11.90
2017-09-19T19:00:19.173Z,11.80
2017-09-19T19:02:47.491Z,11.80
2017-09-19T19:05:15.921Z,11.70
2017-09-19T19:07:45.723Z,11.60
2017-09-19T19:10:14.007Z,11.60
2017-09-19T19:12:42.349Z,11.60
2017-09-19T19:15:12.158Z,11.50
2017-09-19T19:17:40.434Z,11.50
2017-09-19T19:20:08.767Z,11.40
2017-09-19T19:22:37.091Z,11.40
2017-09-19T19:25:05.586Z,11.30
2017-09-19T19:27:33.979Z,11.30
2017-09-19T19:30:02.263Z,11.30
2017-09-19T19:32:30.716Z,11.30
2017-09-19T19:34:59.088Z,11.20
2017-09-19T19:37:27.382Z,11.20
2017-09-19T19:39:55.707Z,11.20
2017-09-19T19:42:23.995Z,11.20
2017-09-19T19:44:52.304Z,11.30
2017-09-19T19:47:20.619Z,11.30
2017-09-19T19:49:48.938Z,11.30
2017-09-19T19:52:17.986Z,11.20
2017-09-19T19:54:46.320Z,11.20
2017-09-19T19:57:14.629Z,11.30
2017-09-19T19:59:42.942Z,11.30
2017-09-19T20:02:11.307Z,11.30
2017-09-19T20:04:39.682Z,11.30
2017-09-19T20:07:08.846Z,11.20
2017-09-19T20:09:37.258Z,11.10
2017-09-19T20:12:06.514Z,11.10
2017-09-19T20:14:34.913Z,11.10
2017-09-19T20:17:03.196Z,11.00
2017-09-19T20:19:32.302Z,10.90
2017-09-19T20:22:01.526Z,10.90
2017-09-19T20:24:29.845Z,10.90
2017-09-19T20:26:58.127Z,10.90
2017-09-19T20:29:26.510Z,10.90
2017-09-19T20:31:54.823Z,10.80
2017-09-19T20:34:24.678Z,10.80
2017-09-19T20:36:53.951Z,10.80
2017-09-19T20:39:22.994Z,10.70
2017-09-19T20:41:51.316Z,10.70
2017-09-19T20:44:19.599Z,10.70
2017-09-19T20:46:48.130Z,10.70
2017-09-19T20:49:16.422Z,10.60
2017-09-19T20:51:45.236Z,10.70
2017-09-19T20:54:13.755Z,10.70
2017-09-19T20:56:42.158Z,10.80
2017-09-19T20:59:10.649Z,10.80
2017-09-19T21:01:39.233Z,10.80
2017-09-19T21:04:13.199Z,10.80
2017-09-19T21:06:47.134Z,10.80
2017-09-19T21:09:21.120Z,10.80
2017-09-19T21:11:56.158Z,10.70
2017-09-19T21:14:30.131Z,10.70
2017-09-19T21:17:04.680Z,10.80
2017-09-19T21:19:32.562Z,10.70
2017-09-19T21:22:01.606Z,10.80
2017-09-19T21:24:29.924Z,10.80
2017-09-19T21:26:58.294Z,10.80
2017-09-19T21:29:26.579Z,10.90
2017-09-19T21:31:55.803Z,10.90
2017-09-19T21:34:24.122Z,10.80
2017-09-19T21:36:52.471Z,10.90
2017-09-19T21:39:20.791Z,10.80
2017-09-19T21:41:49.074Z,10.90
2017-09-19T21:44:17.499Z,10.80
2017-09-19T21:46:45.779Z,10.80
2017-09-19T21:49:14.230Z,10.80
2017-09-19T21:51:43.603Z,10.70
2017-09-19T21:54:13.211Z,10.80
2017-09-19T21:56:41.522Z,10.70
2017-09-19T21:59:09.879Z,10.70
2017-09-19T22:01:39.001Z,10.60
2017-09-19T22:04:08.242Z,10.80
2017-09-19T22:06:36.779Z,10.70
2017-09-19T22:09:05.947Z,10.80
2017-09-19T22:11:35.311Z,10.80
2017-09-19T22:14:03.596Z,10.70
2017-09-19T22:16:31.974Z,10.70
2017-09-19T22:19:00.286Z,10.60
2017-09-19T22:21:29.330Z,10.60
2017-09-19T22:23:57.678Z,10.60
2017-09-19T22:26:25.990Z,10.60
2017-09-19T22:28:54.412Z,10.60
2017-09-19T22:31:22.749Z,10.60
2017-09-19T22:33:51.031Z,10.50
2017-09-19T22:36:20.082Z,10.40
2017-09-19T22:38:48.507Z,10.30
2017-09-19T22:41:16.790Z,10.40
2017-09-19T22:43:45.071Z,10.30
2017-09-19T22:46:13.387Z,10.30
2017-09-19T22:48:41.823Z,10.20
2017-09-19T22:51:10.175Z,10.20
2017-09-19T22:53:38.571Z,10.10
2017-09-19T22:56:06.959Z,10.00
2017-09-19T22:58:35.355Z,10.00
2017-09-19T23:01:04.550Z,9.90
2017-09-19T23:03:32.858Z,9.90
2017-09-19T23:06:01.141Z,9.90
2017-09-19T23:08:29.444Z,9.80
2017-09-19T23:10:57.719Z,9.80
2017-09-19T23:13:26.152Z,9.80
2017-09-19T23:15:54.869Z,9.70
2017-09-19T23:18:23.349Z,9.70
2017-09-19T23:20:51.786Z,9.60
2017-09-19T23:23:20.063Z,9.60
2017-09-19T23:25:48.371Z,9.60
2017-09-19T23:28:16.642Z,9.60
2017-09-19T23:30:45.715Z,9.50
2017-09-19T23:33:13.990Z,9.40
2017-09-19T23:35:42.415Z,9.40
2017-09-19T23:38:10.714Z,9.40
2017-09-19T23:40:39.023Z,9.40
2017-09-19T23:43:07.418Z,9.30
2017-09-19T23:45:36.232Z,9.30
2017-09-19T23:48:05.454Z,9.30
2017-09-19T23:50:35.523Z,9.30
2017-09-19T23:53:05.849Z,9.30
2017-09-19T23:55:34.259Z,9.30
2017-09-19T23:58:03.343Z,9.20
